Terminal Aerodrome Forecast
Issued by NWS Pittsburgh, PA

Current Version | Previous Version | Text Only | Print | Product List | Glossary Off
Versions: 1 2 3 4 5 6 7 8 9 10 11 12 13 14 15 16 17 18 19 20 21 22 23 24 25 26 27 28 29 30 31 32

137
FTUS41 KPBZ 291120
TAFPIT
TAF
KPIT 291120Z 2912/3018 23006KT P6SM SCT010 SCT025
     FM291500 25012KT P6SM SCT050
     FM300300 21005KT P6SM SCT250
     FM300900 22008KT P6SM BKN060=

USA.gov is the U.S. government's official web portal to all federal, state and local government web resources and services.